Time;durP1;ratioP1;P1;durP2;ratioP2;P2;SDS_P1;SDS_P2;PMS_P1;PMS_P2;Temp;Humidity;BMP_temperature;BMP_pressure;BME280_temperature;BME280_humidity;BME280_pressure;Samples;Min_cycle;Max_cycle;Signal;HPM_P1;HPM_P2
2021/03/31 00:01:16;;;;;;;8.00;5.53;;;13.80;99.90;;;;;;5111725;28;20251;-80
2021/03/31 00:03:42;;;;;;;7.40;5.37;;;13.80;99.90;;;;;;5111702;27;20264;-80
2021/03/31 00:06:08;;;;;;;10.97;5.60;;;13.80;99.90;;;;;;5111407;28;20671;-80
2021/03/31 00:08:35;;;;;;;7.50;5.80;;;13.80;99.90;;;;;;5111365;28;20660;-80
2021/03/31 00:11:01;;;;;;;6.00;5.57;;;13.80;99.90;;;;;;5111838;28;20206;-81
2021/03/31 00:13:28;;;;;;;6.03;5.40;;;13.70;99.90;;;;;;5111648;28;20687;-81
2021/03/31 00:15:55;;;;;;;6.80;5.53;;;13.70;99.90;;;;;;5111800;28;20214;-81
2021/03/31 00:18:22;;;;;;;5.87;5.17;;;13.70;99.90;;;;;;5111447;28;20229;-81
2021/03/31 00:20:50;;;;;;;8.20;5.40;;;13.60;99.90;;;;;;5112171;28;20576;-82
2021/03/31 00:23:18;;;;;;;5.60;5.00;;;13.50;99.90;;;;;;5113438;28;20559;-84
2021/03/31 00:25:44;;;;;;;6.20;5.60;;;13.40;99.90;;;;;;5112935;28;20202;-85
2021/03/31 00:28:11;;;;;;;6.17;5.60;;;13.30;99.90;;;;;;5112460;28;20795;-83
2021/03/31 00:30:39;;;;;;;7.40;5.53;;;13.30;99.90;;;;;;5112698;28;20277;-83
2021/03/31 00:33:06;;;;;;;5.60;5.10;;;13.30;99.90;;;;;;5112896;28;20579;-83
2021/03/31 00:35:33;;;;;;;6.87;5.27;;;13.30;99.90;;;;;;5112500;28;20421;-84
2021/03/31 00:37:59;;;;;;;6.93;5.73;;;13.20;99.90;;;;;;5112532;28;20210;-83
2021/03/31 00:40:27;;;;;;;7.93;5.33;;;13.20;99.90;;;;;;5112576;28;20214;-84
2021/03/31 00:42:53;;;;;;;7.50;5.83;;;13.10;99.90;;;;;;5112643;28;20206;-83
2021/03/31 00:45:19;;;;;;;6.07;5.47;;;13.10;99.90;;;;;;5112226;28;20230;-84
2021/03/31 00:47:45;;;;;;;8.83;5.83;;;13.10;99.90;;;;;;5112292;28;20233;-84
2021/03/31 00:50:14;;;;;;;5.97;5.40;;;13.00;99.90;;;;;;5112573;28;20653;-84
2021/03/31 00:52:42;;;;;;;7.80;5.93;;;13.00;99.90;;;;;;5112682;28;20218;-83
2021/03/31 00:55:10;;;;;;;5.90;5.10;;;12.90;99.90;;;;;;5112424;28;20202;-83
2021/03/31 00:57:36;;;;;;;7.70;5.70;;;12.80;99.90;;;;;;5112587;28;20202;-81
2021/03/31 01:00:03;;;;;;;6.23;5.50;;;12.80;99.90;;;;;;5112161;27;20604;-83
2021/03/31 01:02:29;;;;;;;6.20;5.63;;;12.70;99.90;;;;;;5112351;28;20202;-84
2021/03/31 01:04:55;;;;;;;6.20;5.57;;;12.70;99.90;;;;;;5112239;28;20206;-83
2021/03/31 01:07:21;;;;;;;11.33;6.57;;;12.70;99.90;;;;;;5111885;28;20205;-81
2021/03/31 01:09:48;;;;;;;8.17;5.87;;;12.70;99.90;;;;;;5110187;28;20234;-81
2021/03/31 01:12:23;;;;;;;7.47;5.90;;;12.70;99.90;;;;;;5110036;28;20679;-81
2021/03/31 01:15:00;;;;;;;6.77;6.07;;;12.70;99.90;;;;;;5110441;28;20205;-82
2021/03/31 01:17:32;;;;;;;8.33;6.67;;;12.60;99.90;;;;;;5111718;28;20186;-83
2021/03/31 01:20:24;;;;;;;8.90;6.40;;;12.60;99.90;;;;;;5111246;28;20202;-82
2021/03/31 01:23:33;;;;;;;8.50;6.50;;;12.60;99.90;;;;;;5110926;28;20629;-82
2021/03/31 01:26:05;;;;;;;6.80;6.10;;;12.50;99.90;;;;;;5110875;28;20206;-82
2021/03/31 01:28:45;;;;;;;6.93;5.63;;;12.60;99.90;;;;;;5110675;28;20230;-82
2021/03/31 01:31:23;;;;;;;7.97;5.80;;;12.60;99.90;;;;;;5110995;28;20203;-83
2021/03/31 01:34:10;;;;;;;5.87;5.37;;;12.70;99.90;;;;;;5110465;28;20275;-81
2021/03/31 01:36:37;;;;;;;10.30;5.63;;;12.70;99.90;;;;;;5110565;28;20566;-82
2021/03/31 01:39:07;;;;;;;6.80;5.60;;;12.70;99.90;;;;;;5110400;28;20210;-82
2021/03/31 01:41:35;;;;;;;5.97;5.37;;;12.70;99.90;;;;;;5110439;28;20632;-81
2021/03/31 01:44:02;;;;;;;7.33;5.53;;;12.60;99.90;;;;;;5110286;28;20279;-81
2021/03/31 01:46:31;;;;;;;7.87;6.00;;;12.60;99.90;;;;;;5110157;28;20733;-82
2021/03/31 01:49:02;;;;;;;7.60;5.80;;;12.50;99.90;;;;;;5109922;28;20209;-81
2021/03/31 01:51:29;;;;;;;10.27;5.90;;;12.50;99.90;;;;;;5110291;28;20222;-82
2021/03/31 01:53:57;;;;;;;8.03;6.27;;;12.50;99.90;;;;;;5109765;28;20249;-81
2021/03/31 01:56:25;;;;;;;8.47;6.30;;;12.50;99.90;;;;;;5110098;28;20387;-81
2021/03/31 01:58:53;;;;;;;8.40;6.10;;;12.50;99.90;;;;;;5109489;28;20603;-80
2021/03/31 02:01:21;;;;;;;9.13;6.97;;;12.50;99.90;;;;;;5109891;28;20202;-80
2021/03/31 02:03:52;;;;;;;9.27;6.20;;;12.40;99.90;;;;;;5109944;28;20241;-81
2021/03/31 02:06:18;;;;;;;8.77;6.00;;;12.40;99.90;;;;;;5109974;28;20194;-81
2021/03/31 02:08:46;;;;;;;7.27;6.17;;;12.40;99.90;;;;;;5109847;28;20202;-81
2021/03/31 02:11:13;;;;;;;8.13;6.20;;;12.40;99.90;;;;;;5109609;28;20233;-81
2021/03/31 02:13:40;;;;;;;6.40;5.90;;;12.40;99.90;;;;;;5109736;28;20233;-81
2021/03/31 02:16:08;;;;;;;6.10;5.50;;;12.40;99.90;;;;;;5109623;28;20202;-82
2021/03/31 02:18:36;;;;;;;8.00;6.20;;;12.30;99.90;;;;;;5109379;28;20202;-81
2021/03/31 02:21:04;;;;;;;6.53;5.93;;;12.30;99.90;;;;;;5109419;28;20214;-81
2021/03/31 02:23:30;;;;;;;8.20;6.47;;;12.20;99.90;;;;;;5109845;28;20202;-81
2021/03/31 02:25:56;;;;;;;8.60;6.10;;;12.30;99.90;;;;;;5109497;28;20205;-81
2021/03/31 02:28:24;;;;;;;8.30;6.40;;;12.30;99.90;;;;;;5109185;28;20712;-81
2021/03/31 02:30:50;;;;;;;7.10;6.50;;;12.30;99.90;;;;;;5109262;28;20757;-81
2021/03/31 02:33:16;;;;;;;7.53;6.77;;;12.30;99.90;;;;;;5109176;28;20210;-81
2021/03/31 02:35:43;;;;;;;7.13;6.53;;;12.20;99.90;;;;;;5109483;28;20245;-81
2021/03/31 02:38:14;;;;;;;7.43;6.23;;;12.20;99.90;;;;;;5109438;28;20210;-81
2021/03/31 02:40:44;;;;;;;9.70;6.67;;;12.20;99.90;;;;;;5109683;28;20202;-81
2021/03/31 02:43:14;;;;;;;10.10;7.07;;;12.20;99.90;;;;;;5109454;28;20190;-81
2021/03/31 02:45:42;;;;;;;10.37;6.87;;;12.20;99.90;;;;;;5109274;28;20210;-85
2021/03/31 02:48:12;;;;;;;9.07;6.93;;;12.20;99.90;;;;;;5108994;28;20206;-84
2021/03/31 02:50:39;;;;;;;9.97;6.87;;;12.20;99.90;;;;;;5109613;28;20225;-83
2021/03/31 02:53:06;;;;;;;6.70;6.03;;;12.10;99.90;;;;;;5109643;28;20839;-83
2021/03/31 02:55:33;;;;;;;7.53;6.73;;;12.10;99.90;;;;;;5109860;28;20660;-83
2021/03/31 02:58:01;;;;;;;6.97;6.20;;;12.10;99.90;;;;;;5109883;28;20233;-82
2021/03/31 03:00:27;;;;;;;7.13;6.40;;;12.00;99.90;;;;;;5109999;28;20233;-82
2021/03/31 03:02:55;;;;;;;8.93;6.60;;;12.00;99.90;;;;;;5109350;28;20198;-81
2021/03/31 03:05:22;;;;;;;10.00;6.43;;;11.90;99.90;;;;;;5109432;28;20198;-85
2021/03/31 03:07:48;;;;;;;7.17;6.13;;;11.90;99.90;;;;;;5110374;28;20205;-80
2021/03/31 03:10:15;;;;;;;9.33;6.50;;;11.90;99.90;;;;;;5108915;28;20259;-82
2021/03/31 03:12:45;;;;;;;9.53;6.27;;;11.80;99.90;;;;;;5112135;28;20626;-80
2021/03/31 03:15:16;;;;;;;8.37;6.20;;;11.70;99.90;;;;;;5110016;28;20628;-80
2021/03/31 03:17:42;;;;;;;7.20;6.50;;;11.70;99.90;;;;;;5108750;28;20194;-80
2021/03/31 03:20:11;;;;;;;8.40;5.87;;;11.70;99.90;;;;;;5108134;28;20237;-80
2021/03/31 03:22:39;;;;;;;8.80;6.57;;;11.60;99.90;;;;;;5108748;28;20206;-81
2021/03/31 03:25:08;;;;;;;8.60;5.80;;;11.60;99.90;;;;;;5108223;28;20202;-79
2021/03/31 03:27:36;;;;;;;8.87;6.00;;;11.60;99.90;;;;;;5107673;28;20242;-82
2021/03/31 03:30:05;;;;;;;8.80;6.23;;;11.50;99.90;;;;;;5107373;28;20218;-83
2021/03/31 03:32:33;;;;;;;8.97;5.60;;;11.50;99.90;;;;;;5108736;28;20247;-83
2021/03/31 03:34:59;;;;;;;9.83;6.70;;;11.40;99.90;;;;;;5107672;28;20226;-82
2021/03/31 03:37:26;;;;;;;7.10;6.33;;;11.40;99.90;;;;;;5108253;28;20608;-81
2021/03/31 03:39:52;;;;;;;7.73;6.13;;;11.40;99.90;;;;;;5108507;28;20697;-81
2021/03/31 03:42:19;;;;;;;7.00;6.30;;;11.40;99.90;;;;;;5107867;28;20202;-80
2021/03/31 03:44:46;;;;;;;6.50;5.90;;;11.50;99.90;;;;;;5107907;28;20283;-82
2021/03/31 03:47:12;;;;;;;8.90;6.10;;;11.50;99.90;;;;;;5107792;28;20225;-81
2021/03/31 03:49:39;;;;;;;7.30;6.13;;;11.50;99.90;;;;;;5107926;28;20229;-82
2021/03/31 03:52:07;;;;;;;6.97;6.30;;;11.50;99.90;;;;;;5108003;28;20210;-81
2021/03/31 03:54:34;;;;;;;6.80;6.20;;;11.50;99.90;;;;;;5108302;28;20245;-81
2021/03/31 03:57:00;;;;;;;8.63;6.40;;;11.50;99.90;;;;;;5108052;28;20206;-82
2021/03/31 03:59:28;;;;;;;7.57;6.63;;;11.50;99.90;;;;;;5108183;28;20633;-80
2021/03/31 04:01:55;;;;;;;8.43;6.27;;;11.50;99.90;;;;;;5108028;28;20217;-80
2021/03/31 04:04:22;;;;;;;10.73;6.87;;;11.50;99.90;;;;;;5103705;28;20569;-80
2021/03/31 04:06:49;;;;;;;8.93;6.97;;;11.50;99.90;;;;;;5111571;28;20210;-81
2021/03/31 04:09:15;;;;;;;7.60;6.50;;;11.40;99.90;;;;;;5109716;28;20194;-81
2021/03/31 04:11:44;;;;;;;8.07;6.13;;;11.40;99.90;;;;;;5110817;28;20198;-80
2021/03/31 04:14:11;;;;;;;9.83;6.03;;;11.50;99.90;;;;;;5110403;28;20614;-80
2021/03/31 04:16:40;;;;;;;7.10;6.40;;;11.50;99.90;;;;;;5098469;28;20234;-80
2021/03/31 04:19:11;;;;;;;8.13;6.40;;;11.40;99.90;;;;;;5101326;28;20194;-80
2021/03/31 04:21:40;;;;;;;10.17;6.30;;;11.50;99.90;;;;;;5107805;28;20198;-83
2021/03/31 04:24:09;;;;;;;9.53;6.33;;;11.50;99.90;;;;;;5099737;28;20653;-80
2021/03/31 04:26:35;;;;;;;7.53;6.30;;;11.50;99.90;;;;;;5110363;28;20206;-81
2021/03/31 04:29:04;;;;;;;8.93;7.10;;;11.40;99.90;;;;;;5109443;28;20222;-80
2021/03/31 04:31:31;;;;;;;8.10;6.87;;;11.40;99.90;;;;;;5105044;28;20252;-80
2021/03/31 04:33:58;;;;;;;8.73;6.53;;;11.30;99.90;;;;;;5106202;28;20210;-81
2021/03/31 04:36:28;;;;;;;8.90;6.40;;;11.30;99.90;;;;;;5092579;28;20597;-81
2021/03/31 04:38:54;;;;;;;7.90;7.00;;;11.30;99.90;;;;;;5109592;28;20237;-81
2021/03/31 04:41:20;;;;;;;8.83;6.83;;;11.30;99.90;;;;;;5104011;28;20564;-80
2021/03/31 04:43:46;;;;;;;7.83;6.63;;;11.20;99.90;;;;;;5109985;28;20214;-80
2021/03/31 04:46:13;;;;;;;12.07;6.80;;;11.20;99.90;;;;;;5103870;28;20198;-81
2021/03/31 04:48:40;;;;;;;11.13;6.47;;;11.20;99.90;;;;;;5095099;28;20267;-81
2021/03/31 04:51:07;;;;;;;8.83;6.73;;;11.20;99.90;;;;;;5100462;28;20226;-81
2021/03/31 04:53:34;;;;;;;7.17;6.47;;;11.20;99.90;;;;;;5097601;28;20203;-81
2021/03/31 04:56:00;;;;;;;8.87;7.23;;;11.10;99.90;;;;;;5107299;28;20237;-81
2021/03/31 04:58:27;;;;;;;7.50;6.67;;;11.20;99.90;;;;;;5109743;28;20250;-82
2021/03/31 05:00:53;;;;;;;8.50;6.37;;;11.10;99.90;;;;;;5109336;28;20237;-82
2021/03/31 05:03:20;;;;;;;8.40;7.13;;;11.10;99.90;;;;;;5101303;28;20195;-81
2021/03/31 05:05:46;;;;;;;8.83;6.53;;;11.10;99.90;;;;;;5095948;28;20234;-81
2021/03/31 05:08:13;;;;;;;7.87;7.03;;;11.10;99.90;;;;;;5097665;28;20195;-82
2021/03/31 05:10:39;;;;;;;6.97;6.27;;;11.10;99.90;;;;;;5100377;28;20257;-82
2021/03/31 05:13:05;;;;;;;11.43;7.27;;;11.10;99.90;;;;;;5098356;28;20257;-81
2021/03/31 05:15:31;;;;;;;9.13;6.90;;;11.10;99.90;;;;;;5109397;28;20226;-82
2021/03/31 05:17:57;;;;;;;9.30;7.37;;;11.10;99.90;;;;;;5093883;28;20205;-81
2021/03/31 05:20:24;;;;;;;8.60;7.20;;;11.10;99.90;;;;;;5100086;28;20616;-81
2021/03/31 05:22:50;;;;;;;11.07;8.37;;;11.10;99.90;;;;;;5094371;28;20190;-82
2021/03/31 05:25:17;;;;;;;10.23;7.53;;;11.10;99.90;;;;;;5109168;28;20209;-81
2021/03/31 05:27:43;;;;;;;8.17;7.30;;;11.00;99.90;;;;;;5108547;28;20198;-81
2021/03/31 05:30:10;;;;;;;9.63;8.07;;;11.10;99.90;;;;;;5108761;28;20213;-82
2021/03/31 05:32:38;;;;;;;11.30;7.70;;;11.10;99.90;;;;;;5105930;28;20202;-81
2021/03/31 05:35:05;;;;;;;10.43;7.30;;;11.20;99.90;;;;;;5108092;28;21650;-83
2021/03/31 05:37:32;;;;;;;9.03;7.83;;;11.20;99.90;;;;;;5106720;28;20194;-81
2021/03/31 05:39:58;;;;;;;12.23;8.57;;;11.20;99.90;;;;;;5105761;28;20237;-81
2021/03/31 05:42:25;;;;;;;9.33;7.63;;;11.20;99.90;;;;;;5105668;28;20210;-82
2021/03/31 05:44:51;;;;;;;9.07;7.50;;;11.20;99.90;;;;;;5108692;28;20245;-81
2021/03/31 05:47:23;;;;;;;10.73;8.30;;;11.30;99.90;;;;;;5102005;28;20221;-81
2021/03/31 05:49:50;;;;;;;13.03;7.87;;;11.30;99.90;;;;;;5097104;28;20214;-82
2021/03/31 05:52:16;;;;;;;11.40;8.53;;;11.30;99.90;;;;;;5097053;28;20640;-81
2021/03/31 05:54:43;;;;;;;11.60;7.80;;;11.20;99.90;;;;;;5108103;28;20204;-81
2021/03/31 05:57:09;;;;;;;10.63;7.97;;;11.20;99.90;;;;;;5102621;28;20198;-81
2021/03/31 05:59:37;;;;;;;10.70;8.10;;;11.20;99.90;;;;;;5100827;28;20622;-81
2021/03/31 06:02:05;;;;;;;13.50;8.03;;;11.20;99.90;;;;;;5095477;28;20195;-81
2021/03/31 06:04:31;;;;;;;10.60;8.17;;;11.20;99.90;;;;;;5102755;28;20228;-81
2021/03/31 06:06:57;;;;;;;12.53;7.77;;;11.20;99.90;;;;;;5094340;28;20203;-82
2021/03/31 06:09:23;;;;;;;11.07;8.03;;;11.30;99.90;;;;;;5102290;28;20198;-80
2021/03/31 06:11:53;;;;;;;10.83;8.17;;;11.30;99.90;;;;;;5109066;28;20205;-81
2021/03/31 06:14:31;;;;;;;11.47;8.17;;;11.30;99.90;;;;;;5108945;28;20206;-81
2021/03/31 06:17:10;;;;;;;9.77;8.13;;;11.40;99.90;;;;;;5106979;28;20193;-81
2021/03/31 06:19:38;;;;;;;10.40;7.57;;;11.40;99.90;;;;;;5100226;28;20199;-81
2021/03/31 06:22:13;;;;;;;13.90;8.43;;;11.50;99.90;;;;;;5103817;28;20203;-81
2021/03/31 06:24:45;;;;;;;10.27;8.13;;;11.50;99.90;;;;;;5100311;28;20714;-81
2021/03/31 06:27:12;;;;;;;10.03;8.73;;;11.50;99.90;;;;;;5105637;28;20182;-82
2021/03/31 06:29:43;;;;;;;12.37;8.63;;;11.60;99.90;;;;;;5095677;28;20234;-81
2021/03/31 06:32:17;;;;;;;10.33;8.63;;;11.60;99.90;;;;;;5099383;28;20679;-82
2021/03/31 06:34:55;;;;;;;11.40;8.43;;;11.60;99.90;;;;;;5091602;28;20256;-82
2021/03/31 06:37:34;;;;;;;9.53;8.20;;;11.70;99.90;;;;;;5088984;28;20252;-80
2021/03/31 06:40:00;;;;;;;11.87;8.47;;;11.70;99.90;;;;;;5088771;28;20203;-82
2021/03/31 06:42:39;;;;;;;12.20;8.30;;;11.70;99.90;;;;;;5088842;28;20202;-81
2021/03/31 06:45:09;;;;;;;11.47;9.37;;;11.80;99.90;;;;;;5090291;28;20292;-83
2021/03/31 06:47:40;;;;;;;12.97;8.73;;;11.80;99.90;;;;;;5092692;28;20669;-82
2021/03/31 06:50:09;;;;;;;20.07;9.13;;;11.90;99.90;;;;;;5092746;28;20219;-80
2021/03/31 06:52:51;;;;;;;15.20;9.07;;;12.00;99.90;;;;;;5092986;28;20211;-82
2021/03/31 06:55:18;;;;;;;12.07;9.47;;;12.10;99.90;;;;;;5092859;28;20187;-82
2021/03/31 06:57:51;;;;;;;11.60;9.37;;;12.20;99.90;;;;;;5092447;28;20203;-81
2021/03/31 07:00:24;;;;;;;12.70;9.23;;;12.20;99.90;;;;;;5092727;28;20222;-82
2021/03/31 07:02:51;;;;;;;10.17;8.73;;;12.30;99.90;;;;;;5092779;28;20195;-82
2021/03/31 07:05:17;;;;;;;9.47;8.43;;;12.40;99.90;;;;;;5092657;28;20581;-82
2021/03/31 07:07:44;;;;;;;11.37;9.10;;;12.40;99.90;;;;;;5112905;28;20194;-82
2021/03/31 07:10:11;;;;;;;10.07;8.60;;;12.50;99.90;;;;;;5112232;28;20222;-78
2021/03/31 07:12:40;;;;;;;11.40;9.27;;;12.50;99.90;;;;;;5112394;28;20206;-81
2021/03/31 07:15:08;;;;;;;11.90;9.43;;;12.60;99.90;;;;;;5113066;28;20217;-81
2021/03/31 07:17:35;;;;;;;11.50;9.23;;;12.70;99.90;;;;;;5112578;27;20202;-84
2021/03/31 07:20:01;;;;;;;10.47;8.93;;;12.70;99.90;;;;;;5111529;28;20671;-82
2021/03/31 07:22:28;;;;;;;10.90;8.90;;;12.80;99.90;;;;;;5112486;28;20209;-82
2021/03/31 07:24:55;;;;;;;14.37;8.83;;;12.90;99.90;;;;;;5112408;28;20198;-81
2021/03/31 07:27:25;;;;;;;12.73;9.43;;;13.00;99.90;;;;;;5109066;28;20190;-82
2021/03/31 07:30:09;;;;;;;10.87;8.60;;;13.10;99.90;;;;;;5111645;28;20233;-82
2021/03/31 07:32:48;;;;;;;11.53;8.87;;;13.10;99.90;;;;;;5112375;28;20576;-82
2021/03/31 07:35:16;;;;;;;13.37;8.80;;;13.30;99.90;;;;;;5109656;28;20400;-81
2021/03/31 07:37:44;;;;;;;10.40;8.33;;;13.40;99.90;;;;;;5100850;28;20202;-80
2021/03/31 07:40:12;;;;;;;13.97;9.20;;;13.40;99.90;;;;;;5109300;28;20208;-83
2021/03/31 07:42:42;;;;;;;11.87;9.00;;;13.50;99.90;;;;;;5109377;28;20203;-82
2021/03/31 07:45:11;;;;;;;9.93;8.57;;;13.60;99.90;;;;;;5108679;28;20209;-82
2021/03/31 07:47:40;;;;;;;11.87;9.63;;;13.70;99.90;;;;;;5111565;28;20198;-81
2021/03/31 07:50:07;;;;;;;11.33;8.73;;;13.70;99.90;;;;;;5100003;28;20214;-81
2021/03/31 07:52:51;;;;;;;12.77;9.13;;;13.90;99.90;;;;;;5112002;27;20205;-81
2021/03/31 07:55:34;;;;;;;9.47;8.47;;;14.00;99.90;;;;;;5111961;28;20201;-82
2021/03/31 07:58:19;;;;;;;20.67;8.37;;;14.00;99.90;;;;;;5111245;28;20318;-81
2021/03/31 08:00:56;;;;;;;12.03;8.60;;;14.20;99.90;;;;;;5111588;28;20199;-82
2021/03/31 08:03:25;;;;;;;13.40;8.50;;;14.30;99.90;;;;;;5110969;28;20665;-81
2021/03/31 08:06:12;;;;;;;12.90;8.93;;;14.40;99.90;;;;;;5110882;28;20251;-82
2021/03/31 08:08:55;;;;;;;13.13;8.90;;;14.50;99.90;;;;;;5110449;28;20558;-81
2021/03/31 08:11:50;;;;;;;9.87;8.17;;;14.60;99.90;;;;;;5110633;28;20278;-81
2021/03/31 08:14:19;;;;;;;13.53;7.77;;;14.70;99.90;;;;;;5110393;28;20649;-81
2021/03/31 08:16:47;;;;;;;10.97;8.87;;;14.70;99.90;;;;;;5110480;28;20699;-81
2021/03/31 08:19:16;;;;;;;10.53;8.47;;;14.80;99.90;;;;;;5110521;28;20210;-81
2021/03/31 08:21:45;;;;;;;9.63;8.37;;;14.90;99.90;;;;;;5109716;28;20657;-81
2021/03/31 08:24:12;;;;;;;10.50;8.13;;;15.00;99.90;;;;;;5110301;28;20823;-82
2021/03/31 08:26:41;;;;;;;10.37;8.03;;;15.10;99.90;;;;;;5110570;28;20202;-82
2021/03/31 08:29:10;;;;;;;14.57;8.90;;;15.10;99.90;;;;;;5109715;28;20584;-82
2021/03/31 08:31:38;;;;;;;11.13;8.57;;;15.20;99.90;;;;;;5109361;28;20603;-81
2021/03/31 08:34:05;;;;;;;13.27;9.00;;;15.30;99.90;;;;;;5110010;28;20205;-81
2021/03/31 08:36:32;;;;;;;15.90;10.60;;;15.40;99.90;;;;;;5110878;28;20206;-85
2021/03/31 08:38:59;;;;;;;14.03;9.20;;;15.40;99.90;;;;;;5111964;28;20727;-85
2021/03/31 08:41:27;;;;;;;14.13;9.53;;;15.50;99.90;;;;;;5110780;28;20843;-82
2021/03/31 08:44:13;;;;;;;17.97;11.30;;;15.60;99.90;;;;;;5109562;28;20232;-82
2021/03/31 08:46:40;;;;;;;21.67;12.53;;;15.70;99.90;;;;;;5106138;28;20225;-82
2021/03/31 08:49:06;;;;;;;18.43;10.97;;;15.80;99.90;;;;;;5104136;28;20689;-83
2021/03/31 08:51:41;;;;;;;18.33;11.60;;;15.90;99.90;;;;;;5106885;28;20695;-83
2021/03/31 08:54:07;;;;;;;17.33;11.63;;;16.00;99.90;;;;;;5107106;28;20233;-82
2021/03/31 08:56:33;;;;;;;16.53;11.53;;;16.10;99.90;;;;;;5107060;28;20233;-83
2021/03/31 08:58:59;;;;;;;18.40;12.10;;;16.30;99.90;;;;;;5107359;28;20262;-82
2021/03/31 09:01:27;;;;;;;18.23;12.60;;;16.40;99.90;;;;;;5106592;28;20369;-83
2021/03/31 09:04:15;;;;;;;20.27;13.10;;;16.60;99.90;;;;;;5106219;28;20220;-83
2021/03/31 09:06:42;;;;;;;20.47;14.23;;;16.80;99.90;;;;;;5106972;28;20225;-83
2021/03/31 09:09:08;;;;;;;21.53;13.80;;;16.90;99.90;;;;;;5104964;28;20576;-83
2021/03/31 09:11:35;;;;;;;19.07;13.87;;;17.10;99.90;;;;;;5106275;28;20226;-83
2021/03/31 09:14:16;;;;;;;20.13;13.60;;;17.20;99.90;;;;;;5105812;28;20297;-83
2021/03/31 09:16:49;;;;;;;21.13;12.40;;;17.30;99.90;;;;;;5106240;28;20721;-83
2021/03/31 09:19:16;;;;;;;21.10;14.00;;;17.30;99.90;;;;;;5106454;28;20199;-82
2021/03/31 09:21:44;;;;;;;19.93;12.83;;;17.40;99.90;;;;;;5107092;28;20601;-81
2021/03/31 09:24:13;;;;;;;21.77;13.20;;;17.40;99.80;;;;;;5106054;28;20210;-83
2021/03/31 09:26:40;;;;;;;19.67;12.50;;;17.50;99.30;;;;;;5106337;28;20192;-82
2021/03/31 09:29:14;;;;;;;20.50;12.00;;;17.50;98.80;;;;;;5105755;28;20237;-82
2021/03/31 09:31:41;;;;;;;18.33;12.57;;;17.50;97.10;;;;;;5106179;28;20226;-82
2021/03/31 09:34:08;;;;;;;18.60;12.60;;;17.60;97.00;;;;;;5105711;28;20209;-82
2021/03/31 09:36:35;;;;;;;17.50;12.03;;;17.70;97.00;;;;;;5105546;28;20226;-81
2021/03/31 09:39:03;;;;;;;15.93;12.00;;;17.80;97.10;;;;;;5105991;28;20212;-82
2021/03/31 09:41:29;;;;;;;16.03;12.03;;;17.80;96.00;;;;;;5105960;28;20217;-81
2021/03/31 09:43:56;;;;;;;17.73;11.23;;;18.00;95.10;;;;;;5106110;28;20265;-81
2021/03/31 09:46:24;;;;;;;17.80;11.30;;;18.00;93.20;;;;;;5105832;28;20202;-82
2021/03/31 09:48:51;;;;;;;14.23;11.03;;;18.20;92.60;;;;;;5105590;28;20215;-82
2021/03/31 09:51:18;;;;;;;15.60;10.70;;;18.30;91.90;;;;;;5104819;28;20218;-81
2021/03/31 09:53:45;;;;;;;14.80;10.33;;;18.40;91.30;;;;;;5104876;28;20672;-82
2021/03/31 09:56:13;;;;;;;17.43;11.20;;;18.50;90.10;;;;;;5105041;28;20278;-83
2021/03/31 09:58:40;;;;;;;16.07;9.67;;;18.50;90.00;;;;;;5105328;28;20206;-81
2021/03/31 10:01:10;;;;;;;12.10;9.00;;;18.50;90.60;;;;;;5104883;28;20664;-80
2021/03/31 10:03:36;;;;;;;13.20;10.43;;;18.50;90.40;;;;;;5105095;28;20246;-81
2021/03/31 10:06:18;;;;;;;15.33;11.00;;;18.50;90.00;;;;;;5104313;28;20668;-81
2021/03/31 10:08:44;;;;;;;13.37;9.77;;;18.60;89.70;;;;;;5104560;28;20190;-73
2021/03/31 10:11:29;;;;;;;17.37;10.70;;;18.70;88.50;;;;;;5104623;28;20230;-73
2021/03/31 10:13:55;;;;;;;11.13;9.23;;;18.80;90.00;;;;;;5104923;28;20320;-73
2021/03/31 10:16:29;;;;;;;15.50;9.77;;;18.90;90.00;;;;;;5104581;28;20728;-74
2021/03/31 10:18:56;;;;;;;12.23;10.20;;;19.10;87.40;;;;;;5104513;28;20228;-72
2021/03/31 10:21:29;;;;;;;13.40;9.60;;;19.20;89.00;;;;;;5104654;28;20205;-73
2021/03/31 10:23:56;;;;;;;16.23;9.37;;;19.30;90.70;;;;;;5104866;28;20748;-71
2021/03/31 10:26:24;;;;;;;14.53;9.50;;;19.40;90.80;;;;;;5104596;28;20692;-71
2021/03/31 10:28:53;;;;;;;12.83;9.53;;;19.40;90.60;;;;;;5104714;28;20260;-73
2021/03/31 10:31:21;;;;;;;12.57;9.27;;;19.60;91.10;;;;;;5105490;28;20233;-73
2021/03/31 10:33:48;;;;;;;12.43;9.80;;;19.60;90.40;;;;;;5105193;28;20209;-73
2021/03/31 10:36:38;;;;;;;16.10;9.97;;;19.60;88.50;;;;;;5105225;28;20206;-73
2021/03/31 10:39:35;;;;;;;16.67;10.00;;;19.60;88.80;;;;;;5105121;28;20190;-72
2021/03/31 10:48:07;;;;;;;14.33;10.37;;;19.80;89.50;;;;;;5104854;28;20205;-73
2021/03/31 10:50:39;;;;;;;12.13;9.30;;;19.80;88.30;;;;;;5104880;28;20221;-72
2021/03/31 10:53:06;;;;;;;13.18;9.30;;;19.90;87.80;;;;;;5105471;28;20206;-71
2021/03/31 10:55:32;;;;;;;15.17;9.73;;;20.10;88.90;;;;;;5104970;28;20292;-72
2021/03/31 10:57:58;;;;;;;14.60;9.67;;;20.20;88.30;;;;;;5105411;28;20213;-73
2021/03/31 11:00:26;;;;;;;13.93;9.52;;;20.40;88.30;;;;;;5104872;28;20279;-72
2021/03/31 11:02:52;;;;;;;17.37;10.23;;;20.40;88.40;;;;;;5105156;28;20210;-72
2021/03/31 11:05:18;;;;;;;13.83;10.23;;;20.50;90.00;;;;;;5104714;28;20194;-73
2021/03/31 11:07:44;;;;;;;13.98;9.38;;;20.50;88.80;;;;;;5104638;28;20556;-73
2021/03/31 11:10:11;;;;;;;16.42;10.30;;;20.60;89.10;;;;;;5104632;28;20265;-73
2021/03/31 11:12:42;;;;;;;13.57;9.90;;;20.60;87.00;;;;;;5105023;28;20335;-73
2021/03/31 11:15:11;;;;;;;16.08;8.95;;;20.70;86.40;;;;;;5104944;28;20194;-72
2021/03/31 11:17:43;;;;;;;12.82;9.10;;;20.70;87.30;;;;;;5105298;28;20578;-72
2021/03/31 11:20:22;;;;;;;18.05;9.95;;;20.80;87.90;;;;;;5105033;28;20513;-72
2021/03/31 11:25:40;;;;;;;12.43;9.75;;;21.00;85.80;;;;;;5065958;28;20721;-72
2021/03/31 11:28:07;;;;;;;10.73;8.48;;;21.10;84.10;;;;;;5104649;28;20757;-72
2021/03/31 11:30:33;;;;;;;13.88;8.43;;;21.30;84.10;;;;;;5104922;28;20229;-74
2021/03/31 11:33:00;;;;;;;20.98;9.98;;;21.40;82.10;;;;;;5107834;28;20382;-73
2021/03/31 11:35:27;;;;;;;14.40;9.65;;;21.70;79.00;;;;;;5108674;28;20330;-73
2021/03/31 11:37:53;;;;;;;15.38;9.45;;;21.90;79.50;;;;;;5108729;28;20206;-72
2021/03/31 11:40:19;;;;;;;12.27;8.05;;;22.00;80.20;;;;;;5108801;28;20617;-72
2021/03/31 11:42:45;;;;;;;14.23;9.68;;;22.00;80.80;;;;;;5108909;28;20237;-72
2021/03/31 11:45:13;;;;;;;19.80;9.32;;;22.10;81.20;;;;;;5108533;28;20463;-72
2021/03/31 11:47:39;;;;;;;12.75;8.77;;;22.10;81.50;;;;;;5108639;27;20213;-72
2021/03/31 11:50:07;;;;;;;13.80;9.07;;;22.10;79.60;;;;;;5108127;28;20278;-72
2021/03/31 11:52:33;;;;;;;12.13;9.23;;;22.20;79.10;;;;;;5108349;28;20202;-72
2021/03/31 11:54:59;;;;;;;11.38;9.05;;;22.20;78.10;;;;;;5108601;28;20210;-72
2021/03/31 11:57:25;;;;;;;12.05;7.93;;;22.30;76.70;;;;;;5108189;28;20680;-72
2021/03/31 11:59:51;;;;;;;11.95;8.00;;;22.50;77.00;;;;;;5108118;28;20643;-72
2021/03/31 12:02:17;;;;;;;14.93;8.95;;;22.60;75.10;;;;;;5108048;28;20227;-73
2021/03/31 12:04:44;;;;;;;12.50;8.40;;;22.70;74.10;;;;;;5108086;28;20391;-72
2021/03/31 12:07:12;;;;;;;12.95;7.95;;;22.80;73.80;;;;;;5107458;28;20202;-72
2021/03/31 12:09:41;;;;;;;9.95;7.88;;;22.90;74.50;;;;;;5107135;28;20255;-72
2021/03/31 12:12:09;;;;;;;9.00;7.57;;;23.10;73.10;;;;;;5107294;28;20229;-73
2021/03/31 12:14:35;;;;;;;9.07;7.80;;;23.20;72.00;;;;;;5108004;28;20370;-70
2021/03/31 12:17:02;;;;;;;11.02;8.48;;;23.20;72.30;;;;;;5108146;28;20210;-72
2021/03/31 12:19:28;;;;;;;12.30;8.05;;;23.30;70.30;;;;;;5107085;28;20237;-72
2021/03/31 12:21:55;;;;;;;10.15;8.18;;;23.30;70.00;;;;;;5107939;28;20235;-72
2021/03/31 12:24:22;;;;;;;10.98;7.68;;;23.30;71.50;;;;;;5107448;28;20688;-73
2021/03/31 12:26:49;;;;;;;10.05;7.70;;;23.40;73.00;;;;;;5107440;28;20731;-72
2021/03/31 12:29:15;;;;;;;10.38;8.32;;;23.50;68.70;;;;;;5107179;28;20313;-72
2021/03/31 12:31:42;;;;;;;11.77;8.15;;;23.60;66.10;;;;;;5107540;28;20591;-72
2021/03/31 12:34:08;;;;;;;13.27;8.55;;;23.70;65.70;;;;;;5107484;28;20213;-73
2021/03/31 12:36:35;;;;;;;12.02;8.23;;;23.80;65.10;;;;;;5106947;28;20201;-72
2021/03/31 12:39:01;;;;;;;10.07;7.38;;;23.80;65.00;;;;;;5106832;28;20660;-72
2021/03/31 12:41:30;;;;;;;9.80;7.25;;;23.90;65.00;;;;;;5104164;28;20217;-72
2021/03/31 12:43:56;;;;;;;10.65;8.50;;;24.00;65.70;;;;;;5107529;28;20234;-73
2021/03/31 12:46:22;;;;;;;9.85;6.93;;;24.10;65.90;;;;;;5107344;28;20246;-72
2021/03/31 12:48:48;;;;;;;9.32;7.20;;;24.10;66.60;;;;;;5107421;28;20624;-72
2021/03/31 12:51:19;;;;;;;9.50;7.05;;;24.20;65.90;;;;;;5107265;28;20329;-72
2021/03/31 12:53:49;;;;;;;11.50;7.57;;;24.30;65.80;;;;;;5106946;28;20224;-72
2021/03/31 12:56:15;;;;;;;9.35;7.43;;;24.30;61.70;;;;;;5106817;28;20279;-73
2021/03/31 12:58:42;;;;;;;11.00;7.07;;;24.40;61.10;;;;;;5107609;28;20210;-82